sensor_id;sensor_type;location;lat;lon;timestamp;P1;durP1;ratioP1;P2;durP2;ratioP2
34060;SDS011;20336;-33.424;-70.638;2022-09-16T00:00:19;18.37;;;9.80;;
34060;SDS011;20336;-33.424;-70.638;2022-09-16T00:02:46;19.63;;;10.37;;
34060;SDS011;20336;-33.424;-70.638;2022-09-16T00:05:13;18.15;;;9.25;;
34060;SDS011;20336;-33.424;-70.638;2022-09-16T00:07:40;23.50;;;11.33;;
34060;SDS011;20336;-33.424;-70.638;2022-09-16T00:10:07;21.57;;;10.20;;
34060;SDS011;20336;-33.424;-70.638;2022-09-16T00:12:34;23.77;;;10.70;;
34060;SDS011;20336;-33.424;-70.638;2022-09-16T00:15:01;21.77;;;11.63;;
34060;SDS011;20336;-33.424;-70.638;2022-09-16T00:17:28;20.63;;;10.40;;
34060;SDS011;20336;-33.424;-70.638;2022-09-16T00:19:55;19.57;;;9.97;;
34060;SDS011;20336;-33.424;-70.638;2022-09-16T00:22:22;21.70;;;10.50;;
34060;SDS011;20336;-33.424;-70.638;2022-09-16T00:24:49;17.33;;;9.43;;
34060;SDS011;20336;-33.424;-70.638;2022-09-16T00:27:16;22.07;;;11.07;;
34060;SDS011;20336;-33.424;-70.638;2022-09-16T00:29:43;19.83;;;10.27;;
34060;SDS011;20336;-33.424;-70.638;2022-09-16T00:32:10;16.30;;;9.93;;
34060;SDS011;20336;-33.424;-70.638;2022-09-16T00:34:37;18.40;;;10.47;;
34060;SDS011;20336;-33.424;-70.638;2022-09-16T00:37:04;20.43;;;10.37;;
34060;SDS011;20336;-33.424;-70.638;2022-09-16T00:39:34;18.07;;;9.93;;
34060;SDS011;20336;-33.424;-70.638;2022-09-16T00:42:02;20.13;;;10.27;;
34060;SDS011;20336;-33.424;-70.638;2022-09-16T00:47:15;19.83;;;10.00;;
34060;SDS011;20336;-33.424;-70.638;2022-09-16T00:49:43;18.03;;;9.67;;
34060;SDS011;20336;-33.424;-70.638;2022-09-16T00:52:10;19.93;;;10.20;;
34060;SDS011;20336;-33.424;-70.638;2022-09-16T00:54:37;20.43;;;10.73;;
34060;SDS011;20336;-33.424;-70.638;2022-09-16T00:57:05;18.97;;;11.60;;
34060;SDS011;20336;-33.424;-70.638;2022-09-16T00:59:37;22.07;;;10.57;;
34060;SDS011;20336;-33.424;-70.638;2022-09-16T01:02:16;23.40;;;11.03;;
34060;SDS011;20336;-33.424;-70.638;2022-09-16T01:04:49;21.80;;;11.67;;
34060;SDS011;20336;-33.424;-70.638;2022-09-16T01:07:25;26.83;;;11.93;;
34060;SDS011;20336;-33.424;-70.638;2022-09-16T01:09:53;21.23;;;12.00;;
34060;SDS011;20336;-33.424;-70.638;2022-09-16T01:12:21;21.83;;;12.03;;
34060;SDS011;20336;-33.424;-70.638;2022-09-16T01:14:48;28.47;;;12.37;;
34060;SDS011;20336;-33.424;-70.638;2022-09-16T01:27:56;24.37;;;12.87;;
34060;SDS011;20336;-33.424;-70.638;2022-09-16T01:33:03;29.37;;;13.77;;
34060;SDS011;20336;-33.424;-70.638;2022-09-16T01:38:08;25.90;;;12.80;;
34060;SDS011;20336;-33.424;-70.638;2022-09-16T01:40:46;27.63;;;13.70;;
34060;SDS011;20336;-33.424;-70.638;2022-09-16T01:43:57;26.90;;;14.23;;
34060;SDS011;20336;-33.424;-70.638;2022-09-16T01:51:16;27.13;;;14.83;;
34060;SDS011;20336;-33.424;-70.638;2022-09-16T01:54:19;23.57;;;14.17;;
34060;SDS011;20336;-33.424;-70.638;2022-09-16T01:56:43;24.87;;;14.03;;
34060;SDS011;20336;-33.424;-70.638;2022-09-16T01:59:16;28.03;;;13.63;;
34060;SDS011;20336;-33.424;-70.638;2022-09-16T02:01:54;25.00;;;13.77;;
34060;SDS011;20336;-33.424;-70.638;2022-09-16T02:04:27;23.37;;;13.20;;
34060;SDS011;20336;-33.424;-70.638;2022-09-16T02:06:55;28.53;;;14.37;;
34060;SDS011;20336;-33.424;-70.638;2022-09-16T02:09:28;25.20;;;13.77;;
34060;SDS011;20336;-33.424;-70.638;2022-09-16T02:11:56;26.20;;;14.53;;
34060;SDS011;20336;-33.424;-70.638;2022-09-16T02:14:26;33.20;;;15.13;;
34060;SDS011;20336;-33.424;-70.638;2022-09-16T02:19:25;28.73;;;13.70;;
34060;SDS011;20336;-33.424;-70.638;2022-09-16T02:21:52;28.53;;;14.00;;
34060;SDS011;20336;-33.424;-70.638;2022-09-16T02:24:21;24.30;;;13.33;;
34060;SDS011;20336;-33.424;-70.638;2022-09-16T02:26:51;22.37;;;13.93;;
34060;SDS011;20336;-33.424;-70.638;2022-09-16T02:29:21;26.90;;;13.93;;
34060;SDS011;20336;-33.424;-70.638;2022-09-16T02:31:49;24.37;;;13.90;;
34060;SDS011;20336;-33.424;-70.638;2022-09-16T02:34:18;23.27;;;13.57;;
34060;SDS011;20336;-33.424;-70.638;2022-09-16T02:36:52;25.13;;;13.90;;
34060;SDS011;20336;-33.424;-70.638;2022-09-16T02:39:23;25.90;;;14.03;;
34060;SDS011;20336;-33.424;-70.638;2022-09-16T02:41:51;25.23;;;13.90;;
34060;SDS011;20336;-33.424;-70.638;2022-09-16T02:44:19;30.40;;;15.57;;
34060;SDS011;20336;-33.424;-70.638;2022-09-16T02:47:08;32.83;;;15.30;;
34060;SDS011;20336;-33.424;-70.638;2022-09-16T02:55:04;26.23;;;15.07;;
34060;SDS011;20336;-33.424;-70.638;2022-09-16T02:57:31;27.30;;;15.53;;
34060;SDS011;20336;-33.424;-70.638;2022-09-16T02:59:58;25.97;;;15.53;;
34060;SDS011;20336;-33.424;-70.638;2022-09-16T03:02:25;29.37;;;15.33;;
34060;SDS011;20336;-33.424;-70.638;2022-09-16T03:04:52;29.83;;;16.20;;
34060;SDS011;20336;-33.424;-70.638;2022-09-16T03:07:19;28.07;;;15.67;;
34060;SDS011;20336;-33.424;-70.638;2022-09-16T03:09:46;33.77;;;16.70;;
34060;SDS011;20336;-33.424;-70.638;2022-09-16T03:12:17;26.97;;;14.60;;
34060;SDS011;20336;-33.424;-70.638;2022-09-16T03:25:03;27.67;;;15.17;;
34060;SDS011;20336;-33.424;-70.638;2022-09-16T03:27:36;31.90;;;14.97;;
34060;SDS011;20336;-33.424;-70.638;2022-09-16T03:30:04;27.33;;;14.87;;
34060;SDS011;20336;-33.424;-70.638;2022-09-16T03:32:52;23.57;;;14.13;;
34060;SDS011;20336;-33.424;-70.638;2022-09-16T03:35:30;25.40;;;14.37;;
34060;SDS011;20336;-33.424;-70.638;2022-09-16T03:37:58;23.03;;;13.93;;
34060;SDS011;20336;-33.424;-70.638;2022-09-16T03:40:33;25.77;;;15.13;;
34060;SDS011;20336;-33.424;-70.638;2022-09-16T03:43:08;26.70;;;14.63;;
34060;SDS011;20336;-33.424;-70.638;2022-09-16T03:45:36;21.47;;;13.37;;
34060;SDS011;20336;-33.424;-70.638;2022-09-16T03:48:05;29.60;;;14.43;;
34060;SDS011;20336;-33.424;-70.638;2022-09-16T03:50:31;25.97;;;13.40;;
34060;SDS011;20336;-33.424;-70.638;2022-09-16T03:52:58;27.27;;;14.87;;
34060;SDS011;20336;-33.424;-70.638;2022-09-16T03:55:25;52.33;;;22.67;;
34060;SDS011;20336;-33.424;-70.638;2022-09-16T03:57:52;55.43;;;26.43;;
34060;SDS011;20336;-33.424;-70.638;2022-09-16T04:00:20;42.93;;;21.70;;
34060;SDS011;20336;-33.424;-70.638;2022-09-16T04:02:47;42.07;;;21.60;;
34060;SDS011;20336;-33.424;-70.638;2022-09-16T04:05:14;40.53;;;19.60;;
34060;SDS011;20336;-33.424;-70.638;2022-09-16T04:07:41;33.73;;;17.57;;
34060;SDS011;20336;-33.424;-70.638;2022-09-16T04:10:08;28.97;;;15.43;;
34060;SDS011;20336;-33.424;-70.638;2022-09-16T04:12:36;30.07;;;16.77;;
34060;SDS011;20336;-33.424;-70.638;2022-09-16T04:15:03;30.27;;;15.87;;
34060;SDS011;20336;-33.424;-70.638;2022-09-16T04:17:31;31.17;;;15.93;;
34060;SDS011;20336;-33.424;-70.638;2022-09-16T04:19:58;30.80;;;15.70;;
34060;SDS011;20336;-33.424;-70.638;2022-09-16T04:22:28;27.83;;;14.67;;
34060;SDS011;20336;-33.424;-70.638;2022-09-16T04:24:55;27.40;;;14.93;;
34060;SDS011;20336;-33.424;-70.638;2022-09-16T04:27:22;33.30;;;16.33;;
34060;SDS011;20336;-33.424;-70.638;2022-09-16T04:29:49;29.80;;;14.70;;
34060;SDS011;20336;-33.424;-70.638;2022-09-16T04:32:16;33.47;;;14.97;;
34060;SDS011;20336;-33.424;-70.638;2022-09-16T04:34:42;28.90;;;14.07;;
34060;SDS011;20336;-33.424;-70.638;2022-09-16T04:37:09;28.83;;;14.87;;
34060;SDS011;20336;-33.424;-70.638;2022-09-16T04:39:36;27.00;;;14.50;;
34060;SDS011;20336;-33.424;-70.638;2022-09-16T04:42:03;27.13;;;14.20;;
34060;SDS011;20336;-33.424;-70.638;2022-09-16T04:44:30;25.40;;;14.33;;
34060;SDS011;20336;-33.424;-70.638;2022-09-16T04:46:57;24.10;;;14.10;;
34060;SDS011;20336;-33.424;-70.638;2022-09-16T04:49:24;27.80;;;14.80;;
34060;SDS011;20336;-33.424;-70.638;2022-09-16T04:51:51;28.93;;;14.70;;
34060;SDS011;20336;-33.424;-70.638;2022-09-16T04:54:18;25.47;;;13.57;;
34060;SDS011;20336;-33.424;-70.638;2022-09-16T04:56:44;44.03;;;15.87;;
34060;SDS011;20336;-33.424;-70.638;2022-09-16T04:59:11;36.33;;;18.50;;
34060;SDS011;20336;-33.424;-70.638;2022-09-16T05:01:38;31.17;;;17.90;;
34060;SDS011;20336;-33.424;-70.638;2022-09-16T05:04:06;36.43;;;19.70;;
34060;SDS011;20336;-33.424;-70.638;2022-09-16T05:06:34;33.37;;;19.53;;
34060;SDS011;20336;-33.424;-70.638;2022-09-16T05:09:02;40.33;;;19.60;;
34060;SDS011;20336;-33.424;-70.638;2022-09-16T05:11:33;38.43;;;19.47;;
34060;SDS011;20336;-33.424;-70.638;2022-09-16T05:14:01;31.27;;;18.83;;
34060;SDS011;20336;-33.424;-70.638;2022-09-16T05:16:29;36.83;;;18.63;;
34060;SDS011;20336;-33.424;-70.638;2022-09-16T05:18:57;37.73;;;19.73;;
34060;SDS011;20336;-33.424;-70.638;2022-09-16T05:21:25;32.30;;;18.03;;
34060;SDS011;20336;-33.424;-70.638;2022-09-16T05:23:52;33.40;;;17.90;;
34060;SDS011;20336;-33.424;-70.638;2022-09-16T05:26:25;38.37;;;18.47;;
34060;SDS011;20336;-33.424;-70.638;2022-09-16T05:28:52;32.83;;;18.10;;
34060;SDS011;20336;-33.424;-70.638;2022-09-16T05:31:20;37.63;;;17.93;;
34060;SDS011;20336;-33.424;-70.638;2022-09-16T05:34:32;34.80;;;17.53;;
34060;SDS011;20336;-33.424;-70.638;2022-09-16T05:36:34;31.00;;;17.70;;
34060;SDS011;20336;-33.424;-70.638;2022-09-16T05:39:04;32.57;;;17.47;;
34060;SDS011;20336;-33.424;-70.638;2022-09-16T05:41:31;30.90;;;17.73;;
34060;SDS011;20336;-33.424;-70.638;2022-09-16T05:43:59;30.37;;;16.97;;
34060;SDS011;20336;-33.424;-70.638;2022-09-16T05:46:26;34.97;;;16.73;;
34060;SDS011;20336;-33.424;-70.638;2022-09-16T05:48:54;31.80;;;17.07;;
34060;SDS011;20336;-33.424;-70.638;2022-09-16T05:51:21;27.07;;;16.53;;
34060;SDS011;20336;-33.424;-70.638;2022-09-16T05:53:51;28.57;;;16.00;;
34060;SDS011;20336;-33.424;-70.638;2022-09-16T05:56:21;28.67;;;16.43;;
34060;SDS011;20336;-33.424;-70.638;2022-09-16T05:58:55;28.33;;;16.70;;
34060;SDS011;20336;-33.424;-70.638;2022-09-16T06:01:24;27.57;;;17.50;;
34060;SDS011;20336;-33.424;-70.638;2022-09-16T06:03:51;31.37;;;16.43;;
34060;SDS011;20336;-33.424;-70.638;2022-09-16T06:06:21;30.30;;;17.87;;
34060;SDS011;20336;-33.424;-70.638;2022-09-16T06:08:50;33.60;;;18.10;;
34060;SDS011;20336;-33.424;-70.638;2022-09-16T06:11:17;36.90;;;18.67;;
34060;SDS011;20336;-33.424;-70.638;2022-09-16T06:13:44;33.07;;;19.77;;
34060;SDS011;20336;-33.424;-70.638;2022-09-16T06:16:11;32.13;;;18.53;;
34060;SDS011;20336;-33.424;-70.638;2022-09-16T06:18:39;31.07;;;19.13;;
34060;SDS011;20336;-33.424;-70.638;2022-09-16T06:21:08;37.53;;;20.07;;
34060;SDS011;20336;-33.424;-70.638;2022-09-16T06:23:36;34.03;;;19.70;;
34060;SDS011;20336;-33.424;-70.638;2022-09-16T06:26:07;33.80;;;19.30;;
34060;SDS011;20336;-33.424;-70.638;2022-09-16T06:28:37;30.20;;;17.13;;
34060;SDS011;20336;-33.424;-70.638;2022-09-16T06:31:06;33.00;;;18.40;;
34060;SDS011;20336;-33.424;-70.638;2022-09-16T06:33:34;34.03;;;19.73;;
34060;SDS011;20336;-33.424;-70.638;2022-09-16T06:36:02;26.17;;;17.43;;
34060;SDS011;20336;-33.424;-70.638;2022-09-16T06:38:29;33.13;;;18.93;;
34060;SDS011;20336;-33.424;-70.638;2022-09-16T06:40:59;32.17;;;18.33;;
34060;SDS011;20336;-33.424;-70.638;2022-09-16T06:43:26;32.43;;;18.83;;
34060;SDS011;20336;-33.424;-70.638;2022-09-16T06:45:57;35.07;;;19.77;;
34060;SDS011;20336;-33.424;-70.638;2022-09-16T06:48:24;28.07;;;18.40;;
34060;SDS011;20336;-33.424;-70.638;2022-09-16T06:53:25;37.03;;;20.90;;
34060;SDS011;20336;-33.424;-70.638;2022-09-16T06:55:52;41.70;;;20.03;;
34060;SDS011;20336;-33.424;-70.638;2022-09-16T06:58:19;33.07;;;19.47;;
34060;SDS011;20336;-33.424;-70.638;2022-09-16T07:00:45;39.00;;;19.87;;
34060;SDS011;20336;-33.424;-70.638;2022-09-16T07:03:12;32.37;;;18.90;;
34060;SDS011;20336;-33.424;-70.638;2022-09-16T07:05:39;35.97;;;20.03;;
34060;SDS011;20336;-33.424;-70.638;2022-09-16T07:08:06;37.20;;;19.30;;
34060;SDS011;20336;-33.424;-70.638;2022-09-16T07:10:33;35.60;;;20.30;;
34060;SDS011;20336;-33.424;-70.638;2022-09-16T07:13:00;31.97;;;19.90;;
34060;SDS011;20336;-33.424;-70.638;2022-09-16T07:15:27;38.43;;;19.97;;
34060;SDS011;20336;-33.424;-70.638;2022-09-16T07:17:54;42.53;;;20.53;;
34060;SDS011;20336;-33.424;-70.638;2022-09-16T07:20:21;30.83;;;18.50;;
34060;SDS011;20336;-33.424;-70.638;2022-09-16T07:22:47;30.80;;;18.13;;
34060;SDS011;20336;-33.424;-70.638;2022-09-16T07:25:18;32.40;;;18.87;;
34060;SDS011;20336;-33.424;-70.638;2022-09-16T07:27:45;29.43;;;19.13;;
34060;SDS011;20336;-33.424;-70.638;2022-09-16T07:30:12;34.77;;;19.63;;
34060;SDS011;20336;-33.424;-70.638;2022-09-16T07:32:39;31.77;;;19.17;;
34060;SDS011;20336;-33.424;-70.638;2022-09-16T07:35:06;37.37;;;20.87;;
34060;SDS011;20336;-33.424;-70.638;2022-09-16T07:37:33;41.53;;;22.27;;
34060;SDS011;20336;-33.424;-70.638;2022-09-16T07:40:00;33.50;;;20.87;;
34060;SDS011;20336;-33.424;-70.638;2022-09-16T07:42:28;34.33;;;19.73;;
34060;SDS011;20336;-33.424;-70.638;2022-09-16T07:44:55;37.50;;;19.23;;
34060;SDS011;20336;-33.424;-70.638;2022-09-16T07:47:21;35.20;;;20.50;;
34060;SDS011;20336;-33.424;-70.638;2022-09-16T07:49:48;44.77;;;21.27;;
34060;SDS011;20336;-33.424;-70.638;2022-09-16T07:52:21;27.63;;;18.90;;
34060;SDS011;20336;-33.424;-70.638;2022-09-16T07:54:53;35.97;;;19.47;;
34060;SDS011;20336;-33.424;-70.638;2022-09-16T07:57:21;34.50;;;19.80;;
34060;SDS011;20336;-33.424;-70.638;2022-09-16T07:59:48;39.10;;;19.10;;
34060;SDS011;20336;-33.424;-70.638;2022-09-16T08:02:15;30.10;;;18.73;;
34060;SDS011;20336;-33.424;-70.638;2022-09-16T08:04:42;31.47;;;18.10;;
34060;SDS011;20336;-33.424;-70.638;2022-09-16T08:07:08;35.13;;;19.03;;
34060;SDS011;20336;-33.424;-70.638;2022-09-16T08:09:35;33.80;;;18.97;;
34060;SDS011;20336;-33.424;-70.638;2022-09-16T08:12:03;34.77;;;20.60;;
34060;SDS011;20336;-33.424;-70.638;2022-09-16T08:14:30;40.73;;;21.00;;
34060;SDS011;20336;-33.424;-70.638;2022-09-16T08:16:57;31.77;;;20.43;;
34060;SDS011;20336;-33.424;-70.638;2022-09-16T08:19:25;36.47;;;21.40;;
34060;SDS011;20336;-33.424;-70.638;2022-09-16T08:21:52;35.87;;;19.73;;
34060;SDS011;20336;-33.424;-70.638;2022-09-16T08:24:19;37.67;;;20.23;;
34060;SDS011;20336;-33.424;-70.638;2022-09-16T08:26:45;31.57;;;19.23;;
34060;SDS011;20336;-33.424;-70.638;2022-09-16T08:29:12;32.27;;;18.97;;
34060;SDS011;20336;-33.424;-70.638;2022-09-16T08:31:39;43.40;;;20.63;;
34060;SDS011;20336;-33.424;-70.638;2022-09-16T08:34:06;42.57;;;22.70;;
34060;SDS011;20336;-33.424;-70.638;2022-09-16T08:36:33;39.40;;;22.20;;
34060;SDS011;20336;-33.424;-70.638;2022-09-16T08:39:00;37.50;;;22.53;;
34060;SDS011;20336;-33.424;-70.638;2022-09-16T08:46:56;42.87;;;24.43;;
34060;SDS011;20336;-33.424;-70.638;2022-09-16T08:49:40;44.50;;;25.60;;
34060;SDS011;20336;-33.424;-70.638;2022-09-16T08:52:09;49.47;;;25.73;;
34060;SDS011;20336;-33.424;-70.638;2022-09-16T08:54:42;43.50;;;25.30;;
34060;SDS011;20336;-33.424;-70.638;2022-09-16T08:57:15;40.27;;;22.83;;
34060;SDS011;20336;-33.424;-70.638;2022-09-16T08:59:47;44.90;;;24.10;;
34060;SDS011;20336;-33.424;-70.638;2022-09-16T09:04:44;45.83;;;24.30;;
34060;SDS011;20336;-33.424;-70.638;2022-09-16T09:07:16;43.03;;;23.70;;
34060;SDS011;20336;-33.424;-70.638;2022-09-16T09:13:08;47.73;;;25.90;;
34060;SDS011;20336;-33.424;-70.638;2022-09-16T09:21:19;43.17;;;25.43;;
34060;SDS011;20336;-33.424;-70.638;2022-09-16T09:26:19;41.37;;;23.37;;
34060;SDS011;20336;-33.424;-70.638;2022-09-16T09:31:43;42.83;;;24.63;;
34060;SDS011;20336;-33.424;-70.638;2022-09-16T09:42:39;36.53;;;24.07;;
34060;SDS011;20336;-33.424;-70.638;2022-09-16T09:47:38;41.83;;;24.43;;
34060;SDS011;20336;-33.424;-70.638;2022-09-16T09:52:42;44.67;;;25.40;;
34060;SDS011;20336;-33.424;-70.638;2022-09-16T09:55:17;41.27;;;24.47;;
34060;SDS011;20336;-33.424;-70.638;2022-09-16T09:58:20;41.53;;;24.27;;
34060;SDS011;20336;-33.424;-70.638;2022-09-16T10:00:37;41.00;;;24.50;;
34060;SDS011;20336;-33.424;-70.638;2022-09-16T10:03:14;46.77;;;25.37;;
34060;SDS011;20336;-33.424;-70.638;2022-09-16T10:05:42;43.20;;;26.20;;
34060;SDS011;20336;-33.424;-70.638;2022-09-16T10:08:23;44.93;;;25.93;;
34060;SDS011;20336;-33.424;-70.638;2022-09-16T10:10:55;45.00;;;26.00;;
34060;SDS011;20336;-33.424;-70.638;2022-09-16T10:13:22;49.40;;;27.67;;
34060;SDS011;20336;-33.424;-70.638;2022-09-16T10:16:04;46.93;;;26.27;;
34060;SDS011;20336;-33.424;-70.638;2022-09-16T10:18:31;46.57;;;27.00;;
34060;SDS011;20336;-33.424;-70.638;2022-09-16T10:21:11;56.73;;;28.07;;
34060;SDS011;20336;-33.424;-70.638;2022-09-16T10:23:39;49.00;;;27.63;;
34060;SDS011;20336;-33.424;-70.638;2022-09-16T10:28:33;47.57;;;26.37;;
34060;SDS011;20336;-33.424;-70.638;2022-09-16T10:31:00;47.33;;;26.40;;
34060;SDS011;20336;-33.424;-70.638;2022-09-16T10:33:32;45.90;;;26.97;;
34060;SDS011;20336;-33.424;-70.638;2022-09-16T10:36:01;46.33;;;27.07;;
34060;SDS011;20336;-33.424;-70.638;2022-09-16T10:38:38;42.90;;;25.70;;
34060;SDS011;20336;-33.424;-70.638;2022-09-16T10:43:58;46.53;;;26.70;;
34060;SDS011;20336;-33.424;-70.638;2022-09-16T10:46:26;48.60;;;26.67;;
34060;SDS011;20336;-33.424;-70.638;2022-09-16T10:48:57;44.33;;;25.97;;
34060;SDS011;20336;-33.424;-70.638;2022-09-16T10:51:29;43.87;;;25.70;;
34060;SDS011;20336;-33.424;-70.638;2022-09-16T10:54:01;51.10;;;27.33;;
34060;SDS011;20336;-33.424;-70.638;2022-09-16T10:56:33;44.17;;;25.70;;
34060;SDS011;20336;-33.424;-70.638;2022-09-16T10:59:01;49.13;;;25.93;;
34060;SDS011;20336;-33.424;-70.638;2022-09-16T11:09:13;48.07;;;27.07;;
34060;SDS011;20336;-33.424;-70.638;2022-09-16T11:14:40;41.47;;;25.83;;
34060;SDS011;20336;-33.424;-70.638;2022-09-16T11:22:40;44.93;;;25.80;;
34060;SDS011;20336;-33.424;-70.638;2022-09-16T11:25:23;46.93;;;27.93;;
34060;SDS011;20336;-33.424;-70.638;2022-09-16T11:30:21;49.40;;;28.17;;
34060;SDS011;20336;-33.424;-70.638;2022-09-16T11:32:52;49.93;;;27.53;;
34060;SDS011;20336;-33.424;-70.638;2022-09-16T11:40:53;48.07;;;26.37;;
34060;SDS011;20336;-33.424;-70.638;2022-09-16T11:43:28;41.87;;;25.23;;
34060;SDS011;20336;-33.424;-70.638;2022-09-16T11:46:03;50.30;;;27.10;;
34060;SDS011;20336;-33.424;-70.638;2022-09-16T11:59:03;45.17;;;25.40;;
34060;SDS011;20336;-33.424;-70.638;2022-09-16T12:01:34;48.07;;;26.20;;
34060;SDS011;20336;-33.424;-70.638;2022-09-16T12:06:30;43.57;;;25.40;;
34060;SDS011;20336;-33.424;-70.638;2022-09-16T12:09:13;47.17;;;26.53;;
34060;SDS011;20336;-33.424;-70.638;2022-09-16T12:11:43;45.33;;;25.57;;
34060;SDS011;20336;-33.424;-70.638;2022-09-16T12:14:15;52.17;;;26.40;;
34060;SDS011;20336;-33.424;-70.638;2022-09-16T12:16:46;49.63;;;27.00;;
34060;SDS011;20336;-33.424;-70.638;2022-09-16T12:19:19;45.60;;;27.60;;
34060;SDS011;20336;-33.424;-70.638;2022-09-16T12:21:48;40.33;;;24.57;;
34060;SDS011;20336;-33.424;-70.638;2022-09-16T12:26:56;39.67;;;24.97;;
34060;SDS011;20336;-33.424;-70.638;2022-09-16T12:29:27;46.70;;;25.03;;
34060;SDS011;20336;-33.424;-70.638;2022-09-16T12:32:06;45.13;;;25.90;;
34060;SDS011;20336;-33.424;-70.638;2022-09-16T12:34:41;47.30;;;26.23;;
34060;SDS011;20336;-33.424;-70.638;2022-09-16T12:39:48;44.30;;;24.90;;
34060;SDS011;20336;-33.424;-70.638;2022-09-16T12:42:38;45.97;;;24.60;;
34060;SDS011;20336;-33.424;-70.638;2022-09-16T12:45:56;43.50;;;24.03;;
34060;SDS011;20336;-33.424;-70.638;2022-09-16T12:47:57;44.87;;;25.30;;
34060;SDS011;20336;-33.424;-70.638;2022-09-16T12:50:35;50.90;;;25.57;;
34060;SDS011;20336;-33.424;-70.638;2022-09-16T12:58:23;48.13;;;27.67;;
34060;SDS011;20336;-33.424;-70.638;2022-09-16T13:03:40;53.30;;;28.07;;
34060;SDS011;20336;-33.424;-70.638;2022-09-16T13:06:27;47.43;;;25.93;;
34060;SDS011;20336;-33.424;-70.638;2022-09-16T13:08:55;50.20;;;25.23;;
34060;SDS011;20336;-33.424;-70.638;2022-09-16T13:11:23;46.57;;;25.60;;
34060;SDS011;20336;-33.424;-70.638;2022-09-16T13:13:57;46.95;;;25.40;;
34060;SDS011;20336;-33.424;-70.638;2022-09-16T13:16:32;48.00;;;25.23;;
34060;SDS011;20336;-33.424;-70.638;2022-09-16T13:19:21;55.25;;;27.05;;
34060;SDS011;20336;-33.424;-70.638;2022-09-16T13:21:49;54.73;;;28.93;;
34060;SDS011;20336;-33.424;-70.638;2022-09-16T13:26:59;50.70;;;27.25;;
34060;SDS011;20336;-33.424;-70.638;2022-09-16T13:29:30;49.22;;;27.42;;
34060;SDS011;20336;-33.424;-70.638;2022-09-16T13:32:04;43.22;;;25.33;;
34060;SDS011;20336;-33.424;-70.638;2022-09-16T13:34:31;49.53;;;27.58;;
34060;SDS011;20336;-33.424;-70.638;2022-09-16T13:36:58;45.95;;;26.60;;
34060;SDS011;20336;-33.424;-70.638;2022-09-16T13:39:30;45.38;;;27.00;;
34060;SDS011;20336;-33.424;-70.638;2022-09-16T13:42:17;48.58;;;27.77;;
34060;SDS011;20336;-33.424;-70.638;2022-09-16T13:44:45;46.85;;;27.35;;
34060;SDS011;20336;-33.424;-70.638;2022-09-16T13:52:14;50.20;;;28.80;;
34060;SDS011;20336;-33.424;-70.638;2022-09-16T13:54:42;54.53;;;29.15;;
34060;SDS011;20336;-33.424;-70.638;2022-09-16T14:07:29;53.65;;;28.98;;
34060;SDS011;20336;-33.424;-70.638;2022-09-16T14:10:02;48.17;;;28.30;;
34060;SDS011;20336;-33.424;-70.638;2022-09-16T14:15:17;52.85;;;29.42;;
34060;SDS011;20336;-33.424;-70.638;2022-09-16T14:17:48;50.53;;;28.15;;
34060;SDS011;20336;-33.424;-70.638;2022-09-16T14:20:18;48.20;;;28.70;;
34060;SDS011;20336;-33.424;-70.638;2022-09-16T14:22:45;45.53;;;27.63;;
34060;SDS011;20336;-33.424;-70.638;2022-09-16T14:25:25;47.55;;;29.27;;
34060;SDS011;20336;-33.424;-70.638;2022-09-16T14:28:05;45.95;;;27.55;;
34060;SDS011;20336;-33.424;-70.638;2022-09-16T14:30:32;41.47;;;27.38;;
34060;SDS011;20336;-33.424;-70.638;2022-09-16T14:32:59;44.83;;;28.95;;
34060;SDS011;20336;-33.424;-70.638;2022-09-16T14:35:27;44.38;;;27.55;;
34060;SDS011;20336;-33.424;-70.638;2022-09-16T14:37:56;51.10;;;30.80;;
34060;SDS011;20336;-33.424;-70.638;2022-09-16T14:40:24;40.17;;;27.30;;
34060;SDS011;20336;-33.424;-70.638;2022-09-16T14:42:54;46.20;;;27.50;;
34060;SDS011;20336;-33.424;-70.638;2022-09-16T14:45:21;46.83;;;29.00;;
34060;SDS011;20336;-33.424;-70.638;2022-09-16T14:47:49;46.20;;;28.77;;
34060;SDS011;20336;-33.424;-70.638;2022-09-16T14:50:21;46.33;;;27.10;;
34060;SDS011;20336;-33.424;-70.638;2022-09-16T14:52:55;39.72;;;25.52;;
34060;SDS011;20336;-33.424;-70.638;2022-09-16T14:55:23;44.85;;;25.17;;
34060;SDS011;20336;-33.424;-70.638;2022-09-16T14:57:51;44.88;;;26.30;;
34060;SDS011;20336;-33.424;-70.638;2022-09-16T15:00:18;42.22;;;26.48;;
34060;SDS011;20336;-33.424;-70.638;2022-09-16T15:02:49;43.30;;;25.70;;
34060;SDS011;20336;-33.424;-70.638;2022-09-16T15:07:47;42.22;;;26.40;;
34060;SDS011;20336;-33.424;-70.638;2022-09-16T15:10:21;38.72;;;25.67;;
34060;SDS011;20336;-33.424;-70.638;2022-09-16T15:12:49;39.42;;;23.45;;
34060;SDS011;20336;-33.424;-70.638;2022-09-16T15:15:20;37.88;;;22.70;;
34060;SDS011;20336;-33.424;-70.638;2022-09-16T15:17:52;35.38;;;22.98;;
34060;SDS011;20336;-33.424;-70.638;2022-09-16T15:20:20;35.40;;;22.15;;
34060;SDS011;20336;-33.424;-70.638;2022-09-16T15:22:50;36.83;;;21.33;;
34060;SDS011;20336;-33.424;-70.638;2022-09-16T15:25:24;33.47;;;21.90;;
34060;SDS011;20336;-33.424;-70.638;2022-09-16T15:28:03;39.90;;;23.13;;
34060;SDS011;20336;-33.424;-70.638;2022-09-16T15:30:30;38.50;;;23.98;;
34060;SDS011;20336;-33.424;-70.638;2022-09-16T15:32:57;38.13;;;23.70;;
34060;SDS011;20336;-33.424;-70.638;2022-09-16T15:35:25;40.05;;;23.75;;
34060;SDS011;20336;-33.424;-70.638;2022-09-16T15:37:53;37.45;;;24.63;;
34060;SDS011;20336;-33.424;-70.638;2022-09-16T15:45:35;40.45;;;24.42;;
34060;SDS011;20336;-33.424;-70.638;2022-09-16T15:50:37;41.38;;;23.50;;
34060;SDS011;20336;-33.424;-70.638;2022-09-16T15:58:05;30.92;;;21.30;;
34060;SDS011;20336;-33.424;-70.638;2022-09-16T16:03:37;34.97;;;22.45;;
34060;SDS011;20336;-33.424;-70.638;2022-09-16T16:06:11;36.85;;;22.88;;
34060;SDS011;20336;-33.424;-70.638;2022-09-16T16:08:43;39.35;;;22.63;;
34060;SDS011;20336;-33.424;-70.638;2022-09-16T16:11:12;36.80;;;22.77;;
34060;SDS011;20336;-33.424;-70.638;2022-09-16T16:13:39;36.65;;;21.05;;
34060;SDS011;20336;-33.424;-70.638;2022-09-16T16:16:07;33.03;;;22.50;;
34060;SDS011;20336;-33.424;-70.638;2022-09-16T16:18:34;37.17;;;22.67;;
34060;SDS011;20336;-33.424;-70.638;2022-09-16T16:21:06;35.42;;;22.75;;
34060;SDS011;20336;-33.424;-70.638;2022-09-16T16:23:34;33.95;;;23.15;;
34060;SDS011;20336;-33.424;-70.638;2022-09-16T16:26:02;36.83;;;22.52;;
34060;SDS011;20336;-33.424;-70.638;2022-09-16T16:28:29;34.05;;;22.05;;
34060;SDS011;20336;-33.424;-70.638;2022-09-16T16:33:35;32.28;;;21.40;;
34060;SDS011;20336;-33.424;-70.638;2022-09-16T16:36:02;36.10;;;21.95;;
34060;SDS011;20336;-33.424;-70.638;2022-09-16T16:38:29;34.13;;;21.20;;
34060;SDS011;20336;-33.424;-70.638;2022-09-16T16:40:55;33.45;;;22.58;;
34060;SDS011;20336;-33.424;-70.638;2022-09-16T16:43:23;35.60;;;22.50;;
34060;SDS011;20336;-33.424;-70.638;2022-09-16T16:45:53;37.80;;;24.50;;
34060;SDS011;20336;-33.424;-70.638;2022-09-16T16:48:21;33.90;;;22.98;;
34060;SDS011;20336;-33.424;-70.638;2022-09-16T16:50:54;34.95;;;21.60;;
34060;SDS011;20336;-33.424;-70.638;2022-09-16T16:53:21;36.17;;;22.75;;
34060;SDS011;20336;-33.424;-70.638;2022-09-16T16:55:48;34.38;;;21.88;;